createdAt,value
2019-05-22T00:00:09.339Z,1.98
2019-05-22T00:02:43.499Z,1.80
2019-05-22T00:05:29.734Z,2.05
2019-05-22T00:07:59.137Z,2.37
2019-05-22T00:10:29.039Z,2.10
2019-05-22T00:12:59.083Z,2.12
2019-05-22T00:15:29.225Z,2.00
2019-05-22T00:17:58.586Z,1.80
2019-05-22T00:20:28.505Z,1.72
2019-05-22T00:22:56.765Z,2.60
2019-05-22T00:25:32.989Z,2.45
2019-05-22T00:28:00.107Z,1.62
2019-05-22T00:30:29.996Z,2.05
2019-05-22T00:33:00.363Z,2.55
2019-05-22T00:35:29.113Z,2.25
2019-05-22T00:37:57.807Z,1.72
2019-05-22T00:40:28.927Z,1.70
2019-05-22T00:43:04.047Z,1.70
2019-05-22T00:45:28.887Z,1.80
2019-05-22T00:47:57.617Z,1.70
2019-05-22T00:50:33.830Z,2.10
2019-05-22T00:53:09.649Z,1.85
2019-05-22T00:55:39.559Z,1.70
2019-05-22T00:58:13.247Z,1.65
2019-05-22T01:00:48.913Z,2.25
2019-05-22T01:03:22.569Z,1.77
2019-05-22T01:05:51.003Z,1.60
2019-05-22T01:08:20.952Z,1.70
2019-05-22T01:10:50.915Z,1.90
2019-05-22T01:13:20.936Z,1.85
2019-05-22T01:15:51.038Z,1.70
2019-05-22T01:18:20.056Z,1.82
2019-05-22T01:20:49.949Z,2.08
2019-05-22T01:23:19.932Z,1.90
2019-05-22T01:25:48.253Z,1.95
2019-05-22T01:28:16.583Z,2.15
2019-05-22T01:31:04.552Z,2.00
2019-05-22T01:33:46.740Z,2.30
2019-05-22T01:36:19.647Z,2.35
2019-05-22T01:38:48.472Z,2.17
2019-05-22T01:41:27.811Z,2.77
2019-05-22T01:43:56.933Z,2.40
2019-05-22T01:46:25.379Z,2.50
2019-05-22T01:48:55.741Z,2.62
2019-05-22T01:51:24.917Z,2.75
2019-05-22T01:53:53.810Z,3.10
2019-05-22T01:56:23.918Z,3.12
2019-05-22T01:58:52.336Z,3.20
2019-05-22T02:01:21.960Z,3.75
2019-05-22T02:03:52.092Z,3.87
2019-05-22T02:06:22.594Z,3.67
2019-05-22T02:09:13.796Z,4.55
2019-05-22T02:11:42.046Z,5.60
2019-05-22T02:14:15.322Z,4.35
2019-05-22T02:16:55.896Z,5.15
2019-05-22T02:19:15.166Z,5.83
2019-05-22T02:21:44.371Z,4.85
2019-05-22T02:24:13.315Z,4.70
2019-05-22T02:26:42.074Z,5.05
2019-05-22T02:29:11.974Z,5.40
2019-05-22T02:31:43.322Z,4.40
2019-05-22T02:34:11.641Z,4.47
2019-05-22T02:36:41.813Z,4.55
2019-05-22T02:39:15.431Z,4.67
2019-05-22T02:41:52.996Z,4.95
2019-05-22T02:44:21.611Z,5.03
2019-05-22T02:46:50.859Z,5.33
2019-05-22T02:49:20.961Z,5.80
2019-05-22T02:51:50.475Z,6.17
2019-05-22T02:54:18.740Z,8.18
2019-05-22T02:56:47.419Z,8.58
2019-05-22T02:59:16.461Z,7.83
2019-05-22T03:01:44.871Z,9.73
2019-05-22T03:04:14.266Z,8.75
2019-05-22T03:06:42.940Z,12.82
2019-05-22T03:09:20.205Z,12.40
2019-05-22T03:11:52.156Z,11.95
2019-05-22T03:14:22.042Z,13.95
2019-05-22T03:16:56.343Z,14.78
2019-05-22T03:19:33.565Z,15.88
2019-05-22T03:22:16.844Z,16.55
2019-05-22T03:27:12.860Z,15.93
2019-05-22T03:29:53.716Z,16.30
2019-05-22T03:32:22.725Z,18.52
2019-05-22T03:34:51.468Z,17.87
2019-05-22T03:37:20.452Z,15.50
2019-05-22T03:39:48.855Z,16.17
2019-05-22T03:42:18.819Z,18.67
2019-05-22T03:44:47.442Z,16.12
2019-05-22T03:47:16.276Z,18.45
2019-05-22T03:49:45.450Z,14.78
2019-05-22T03:52:15.135Z,16.60
2019-05-22T03:54:43.573Z,15.90
2019-05-22T03:57:12.257Z,16.73
2019-05-22T03:59:40.528Z,16.70
2019-05-22T04:02:09.172Z,13.70
2019-05-22T04:04:39.765Z,15.40
2019-05-22T04:07:11.249Z,13.75
2019-05-22T04:09:40.265Z,13.90
2019-05-22T04:12:10.541Z,13.48
2019-05-22T04:14:40.317Z,12.60
2019-05-22T04:17:10.659Z,14.58
2019-05-22T04:19:49.387Z,15.08
2019-05-22T04:22:10.764Z,17.25
2019-05-22T04:24:41.428Z,44.77
2019-05-22T04:27:10.866Z,31.17
2019-05-22T04:29:39.492Z,25.68
2019-05-22T04:32:12.382Z,19.95
2019-05-22T04:34:41.203Z,18.82
2019-05-22T04:37:11.090Z,19.52
2019-05-22T04:39:41.004Z,19.62
2019-05-22T04:42:10.911Z,20.62
2019-05-22T04:44:42.891Z,24.70
2019-05-22T04:47:12.191Z,22.58
2019-05-22T04:49:41.410Z,23.20
2019-05-22T04:52:09.685Z,26.25
2019-05-22T04:54:37.953Z,27.30
2019-05-22T04:57:07.573Z,26.30
2019-05-22T04:59:36.512Z,27.60
2019-05-22T05:02:05.135Z,29.42
2019-05-22T05:04:33.822Z,28.73
2019-05-22T05:07:02.078Z,29.80
2019-05-22T05:09:30.963Z,30.48
2019-05-22T05:11:59.888Z,29.18
2019-05-22T05:14:28.712Z,25.72
2019-05-22T05:16:57.064Z,27.87
2019-05-22T05:19:25.422Z,26.73
2019-05-22T05:21:53.714Z,25.35
2019-05-22T05:24:22.035Z,23.10
2019-05-22T05:26:50.551Z,21.85
2019-05-22T05:29:26.729Z,21.57
2019-05-22T05:31:55.057Z,20.60
2019-05-22T05:34:29.506Z,21.10
2019-05-22T05:36:57.799Z,21.00
2019-05-22T05:39:35.723Z,21.85
2019-05-22T05:42:03.990Z,23.42
2019-05-22T05:44:32.611Z,26.37
2019-05-22T05:47:00.877Z,19.12
2019-05-22T05:49:29.150Z,21.68
2019-05-22T05:51:58.139Z,22.65
2019-05-22T05:54:30.148Z,21.35
2019-05-22T05:57:00.718Z,22.20
2019-05-22T05:59:30.841Z,24.15
2019-05-22T06:02:00.269Z,22.73
2019-05-22T06:04:34.769Z,24.57
2019-05-22T06:07:04.357Z,24.70
2019-05-22T06:09:33.243Z,30.02
2019-05-22T06:12:05.595Z,30.10
2019-05-22T06:14:33.695Z,30.25
2019-05-22T06:17:33.282Z,30.35
2019-05-22T06:20:09.770Z,31.50
2019-05-22T06:22:38.101Z,34.90
2019-05-22T06:25:06.402Z,34.55
2019-05-22T06:27:42.838Z,35.68
2019-05-22T06:30:16.465Z,36.60
2019-05-22T06:33:09.285Z,39.30
2019-05-22T06:35:39.237Z,39.73
2019-05-22T06:38:22.543Z,38.55
2019-05-22T06:43:26.331Z,37.42
2019-05-22T06:45:55.031Z,38.65
2019-05-22T06:48:23.297Z,36.75
2019-05-22T06:50:51.821Z,37.23
2019-05-22T06:53:20.470Z,37.75
2019-05-22T06:55:50.363Z,40.52
2019-05-22T06:58:19.616Z,37.23
2019-05-22T07:00:48.065Z,39.05
2019-05-22T07:03:16.362Z,37.53
2019-05-22T07:05:44.703Z,35.68
2019-05-22T07:08:12.977Z,38.50
2019-05-22T07:10:41.402Z,35.00
2019-05-22T07:13:11.615Z,34.92
2019-05-22T07:15:41.516Z,33.20
2019-05-22T07:18:12.933Z,30.95
2019-05-22T07:20:41.938Z,36.50
2019-05-22T07:23:12.021Z,32.33
2019-05-22T07:25:42.070Z,33.38
2019-05-22T07:28:10.321Z,33.08
2019-05-22T07:30:38.721Z,30.40
2019-05-22T07:33:07.365Z,32.80
2019-05-22T07:35:50.324Z,34.55
2019-05-22T07:38:05.648Z,33.92
2019-05-22T07:40:35.767Z,33.20
2019-05-22T07:43:10.935Z,33.15
2019-05-22T07:45:39.770Z,33.35
2019-05-22T07:48:08.664Z,29.50
2019-05-22T07:50:38.874Z,31.50
2019-05-22T07:53:07.178Z,31.50
2019-05-22T07:55:35.461Z,27.98
2019-05-22T07:58:14.626Z,28.15
2019-05-22T08:00:48.496Z,29.48
2019-05-22T08:03:17.214Z,28.92
2019-05-22T08:05:48.618Z,27.37
2019-05-22T08:08:18.798Z,26.00
2019-05-22T08:10:47.613Z,27.80
2019-05-22T08:13:16.031Z,26.75
2019-05-22T08:15:47.690Z,27.70
2019-05-22T08:18:15.118Z,26.12
2019-05-22T08:20:43.401Z,29.12
2019-05-22T08:23:11.672Z,27.95
2019-05-22T08:25:40.884Z,25.40
2019-05-22T08:28:09.592Z,25.32
2019-05-22T08:30:37.852Z,27.82
2019-05-22T08:33:09.753Z,23.18
2019-05-22T08:35:38.134Z,24.12
2019-05-22T08:38:07.942Z,25.55
2019-05-22T08:40:36.750Z,22.90
2019-05-22T08:43:05.096Z,23.07
2019-05-22T08:45:33.515Z,21.35
2019-05-22T08:48:01.785Z,23.67
2019-05-22T08:50:31.097Z,25.48
2019-05-22T08:52:59.374Z,26.60
2019-05-22T08:55:27.830Z,27.90
2019-05-22T08:57:56.540Z,27.32
2019-05-22T09:00:25.238Z,26.57
2019-05-22T09:02:53.495Z,27.22
2019-05-22T09:05:22.246Z,28.83
2019-05-22T09:07:50.575Z,28.80
2019-05-22T09:10:19.844Z,25.77
2019-05-22T09:12:48.122Z,27.37
2019-05-22T09:15:16.839Z,23.83
2019-05-22T09:17:45.114Z,24.27
2019-05-22T09:20:13.368Z,25.77
2019-05-22T09:22:42.186Z,25.05
2019-05-22T09:25:12.407Z,24.35
2019-05-22T09:27:41.115Z,24.92
2019-05-22T09:30:09.585Z,23.62
2019-05-22T09:32:37.823Z,22.80
2019-05-22T09:35:06.651Z,24.07
2019-05-22T09:37:35.698Z,23.35
2019-05-22T09:40:05.398Z,24.20
2019-05-22T09:42:34.319Z,20.27
2019-05-22T09:45:05.706Z,21.62
2019-05-22T09:47:34.027Z,19.75
2019-05-22T09:50:03.057Z,20.20
2019-05-22T09:52:31.807Z,21.52
2019-05-22T09:55:00.040Z,21.48
2019-05-22T09:57:28.700Z,19.82
2019-05-22T09:59:56.952Z,23.22
2019-05-22T10:02:25.792Z,22.55
2019-05-22T10:04:54.034Z,21.52
2019-05-22T10:07:22.686Z,20.82
2019-05-22T10:09:51.049Z,23.73
2019-05-22T10:12:19.380Z,24.72
2019-05-22T10:14:47.713Z,27.55
2019-05-22T10:17:17.074Z,28.05
2019-05-22T10:19:45.960Z,30.90
2019-05-22T10:22:14.195Z,29.70
2019-05-22T10:24:42.931Z,30.52
2019-05-22T10:27:11.640Z,29.65
2019-05-22T10:29:40.076Z,30.77
2019-05-22T10:32:08.609Z,32.00
2019-05-22T10:34:36.894Z,29.85
2019-05-22T10:37:06.268Z,28.92
2019-05-22T10:39:35.057Z,30.37
2019-05-22T10:42:03.300Z,29.15
2019-05-22T10:44:31.597Z,29.52
2019-05-22T10:46:59.913Z,30.70
2019-05-22T10:49:28.164Z,29.42
2019-05-22T10:51:56.444Z,30.08
2019-05-22T10:54:24.720Z,28.60
2019-05-22T10:56:53.058Z,29.75
2019-05-22T10:59:21.420Z,31.27
2019-05-22T11:01:49.841Z,29.10
2019-05-22T11:04:19.576Z,32.33
2019-05-22T11:06:48.111Z,27.42
2019-05-22T11:09:17.017Z,27.85
2019-05-22T11:11:45.305Z,26.02
2019-05-22T11:14:14.342Z,27.30
2019-05-22T11:16:42.794Z,29.75
2019-05-22T11:19:11.208Z,27.60
2019-05-22T11:21:39.512Z,29.70
2019-05-22T11:24:08.218Z,30.37
2019-05-22T11:26:36.461Z,29.42
2019-05-22T11:29:04.789Z,30.45
2019-05-22T11:31:33.437Z,30.70
2019-05-22T11:34:01.773Z,28.20
2019-05-22T11:36:31.170Z,27.62
2019-05-22T11:38:59.569Z,26.52
2019-05-22T11:41:28.520Z,28.35
2019-05-22T11:43:56.802Z,28.47
2019-05-22T11:46:25.042Z,28.10
2019-05-22T11:48:53.704Z,29.63
2019-05-22T11:51:22.093Z,29.90
2019-05-22T11:54:07.512Z,29.60
2019-05-22T11:56:21.071Z,29.18
2019-05-22T11:58:49.402Z,32.63
2019-05-22T12:01:17.905Z,29.85
2019-05-22T12:03:46.185Z,33.67
2019-05-22T12:06:14.433Z,30.65
2019-05-22T12:08:43.191Z,31.02
2019-05-22T12:11:13.275Z,31.55
2019-05-22T12:13:41.541Z,29.57
2019-05-22T12:16:09.885Z,31.90
2019-05-22T12:18:38.160Z,28.87
2019-05-22T12:21:06.572Z,27.90
2019-05-22T12:23:35.079Z,28.30
2019-05-22T12:26:03.329Z,25.97
2019-05-22T12:28:31.608Z,27.35
2019-05-22T12:30:59.851Z,29.40
2019-05-22T12:33:28.126Z,25.43
2019-05-22T12:35:56.848Z,27.32
2019-05-22T12:38:27.182Z,25.60
2019-05-22T12:40:55.701Z,27.62
2019-05-22T12:43:24.139Z,27.65
2019-05-22T12:45:52.479Z,26.20
2019-05-22T12:48:21.014Z,25.32
2019-05-22T12:50:49.267Z,25.55
2019-05-22T12:53:18.914Z,23.22
2019-05-22T12:55:47.428Z,27.37
2019-05-22T12:58:15.669Z,28.27
2019-05-22T13:00:44.478Z,26.25
2019-05-22T13:03:12.899Z,24.20
2019-05-22T13:05:41.457Z,23.73
2019-05-22T13:08:11.276Z,27.07
2019-05-22T13:10:39.624Z,23.77
2019-05-22T13:13:07.872Z,24.72
2019-05-22T13:15:37.566Z,24.30
2019-05-22T13:18:06.618Z,22.80
2019-05-22T13:20:42.472Z,24.00
2019-05-22T13:23:07.601Z,22.55
2019-05-22T13:25:36.870Z,23.62
2019-05-22T13:28:05.838Z,20.50
2019-05-22T13:30:35.784Z,24.05
2019-05-22T13:33:04.911Z,22.95
2019-05-22T13:35:33.541Z,20.68
2019-05-22T13:38:02.776Z,21.23
2019-05-22T13:40:32.682Z,24.32
2019-05-22T13:43:01.472Z,21.40
2019-05-22T13:45:30.458Z,21.70
2019-05-22T13:47:58.904Z,20.97
2019-05-22T13:50:28.886Z,22.35
2019-05-22T13:52:59.182Z,20.57
2019-05-22T13:55:27.455Z,23.87
2019-05-22T13:57:55.873Z,22.37
2019-05-22T14:00:24.653Z,26.40
2019-05-22T14:02:52.936Z,27.20
2019-05-22T14:05:21.498Z,32.10
2019-05-22T14:07:49.750Z,26.30
2019-05-22T14:10:18.101Z,23.42
2019-05-22T14:12:46.368Z,27.27
2019-05-22T14:15:16.245Z,25.05
2019-05-22T14:17:44.509Z,23.32
2019-05-22T14:20:12.827Z,21.65
2019-05-22T14:22:41.186Z,23.92
2019-05-22T14:25:09.454Z,27.42
2019-05-22T14:27:41.643Z,27.55
2019-05-22T14:30:11.000Z,26.45
2019-05-22T14:32:39.269Z,24.05
2019-05-22T14:35:07.519Z,28.62
2019-05-22T14:37:35.791Z,32.03
2019-05-22T14:40:08.311Z,29.57
2019-05-22T14:42:36.626Z,30.23
2019-05-22T14:45:05.900Z,32.08
2019-05-22T14:47:34.150Z,30.10
2019-05-22T14:50:02.619Z,45.63
2019-05-22T14:52:30.907Z,34.63
2019-05-22T14:54:59.230Z,28.83
2019-05-22T14:57:27.522Z,27.42
2019-05-22T14:59:55.809Z,28.42
2019-05-22T15:02:24.740Z,32.05
2019-05-22T15:04:53.616Z,33.60
2019-05-22T15:07:21.902Z,35.10
2019-05-22T15:09:50.234Z,24.85
2019-05-22T15:12:18.519Z,26.62
2019-05-22T15:14:46.815Z,27.05
2019-05-22T15:17:31.196Z,29.45
2019-05-22T15:19:46.700Z,28.67
2019-05-22T15:22:17.276Z,26.37
2019-05-22T15:24:45.938Z,23.38
2019-05-22T15:27:14.243Z,22.45
2019-05-22T15:29:42.497Z,22.87
2019-05-22T15:32:12.104Z,23.95
2019-05-22T15:34:40.432Z,24.65
2019-05-22T15:37:10.363Z,23.05
2019-05-22T15:39:38.937Z,23.52
2019-05-22T15:42:09.384Z,22.15
2019-05-22T15:44:38.038Z,23.92
2019-05-22T15:47:06.565Z,29.15
2019-05-22T15:49:34.981Z,51.18
2019-05-22T15:52:04.753Z,22.67
2019-05-22T15:54:33.835Z,20.17
2019-05-22T15:57:03.552Z,19.07
2019-05-22T15:59:32.547Z,18.37
2019-05-22T16:02:00.780Z,18.00
2019-05-22T16:04:29.220Z,18.02
2019-05-22T16:06:59.949Z,19.95
2019-05-22T16:09:28.282Z,33.08
2019-05-22T16:11:56.569Z,20.23
2019-05-22T16:14:27.424Z,21.87
2019-05-22T16:16:55.841Z,38.50
2019-05-22T16:19:24.864Z,24.95
2019-05-22T16:21:54.179Z,22.73
2019-05-22T16:24:23.613Z,19.70
2019-05-22T16:26:52.534Z,21.68
2019-05-22T16:29:20.812Z,47.83
2019-05-22T16:31:49.059Z,22.52
2019-05-22T16:34:17.322Z,32.98
2019-05-22T16:36:45.600Z,22.27
2019-05-22T16:39:14.100Z,16.42
2019-05-22T16:41:43.201Z,19.00
2019-05-22T16:44:12.133Z,15.10
2019-05-22T16:46:42.035Z,17.55
2019-05-22T16:49:10.767Z,17.05
2019-05-22T16:51:39.024Z,17.00
2019-05-22T16:54:08.422Z,16.45
2019-05-22T16:56:37.945Z,16.93
2019-05-22T16:59:07.518Z,14.78
2019-05-22T17:01:56.253Z,14.95
2019-05-22T17:04:06.949Z,16.20
2019-05-22T17:06:35.620Z,13.68
2019-05-22T17:09:08.765Z,11.88
2019-05-22T17:11:39.157Z,15.98
2019-05-22T17:14:09.085Z,15.32
2019-05-22T17:16:39.048Z,12.28
2019-05-22T17:19:25.862Z,14.38
2019-05-22T17:21:37.799Z,12.43
2019-05-22T17:24:06.789Z,12.65
2019-05-22T17:26:35.705Z,10.63
2019-05-22T17:29:03.982Z,12.37
2019-05-22T17:31:32.471Z,11.65
2019-05-22T17:34:00.907Z,11.95
2019-05-22T17:36:30.655Z,12.07
2019-05-22T17:38:59.587Z,11.60
2019-05-22T17:41:29.279Z,12.60
2019-05-22T17:43:58.096Z,10.50
2019-05-22T17:46:27.119Z,9.55
2019-05-22T17:48:55.420Z,11.03
2019-05-22T17:51:23.989Z,14.60
2019-05-22T17:53:52.274Z,32.60
2019-05-22T17:56:20.523Z,15.08
2019-05-22T17:58:48.890Z,11.93
2019-05-22T18:01:18.118Z,13.65
2019-05-22T18:03:46.478Z,12.70
2019-05-22T18:06:14.908Z,11.97
2019-05-22T18:08:43.223Z,10.82
2019-05-22T18:11:11.506Z,12.15
2019-05-22T18:13:59.921Z,12.15
2019-05-22T18:16:28.255Z,10.60
2019-05-22T18:18:56.570Z,9.70
2019-05-22T18:21:24.962Z,9.58
2019-05-22T18:23:53.483Z,10.35
2019-05-22T18:26:22.316Z,10.85
2019-05-22T18:28:50.635Z,10.65
2019-05-22T18:31:18.886Z,11.10
2019-05-22T18:33:47.137Z,10.50
2019-05-22T18:36:15.554Z,10.10
2019-05-22T18:38:43.796Z,8.68
2019-05-22T18:41:12.073Z,9.73
2019-05-22T18:46:31.523Z,8.80
2019-05-22T18:48:59.872Z,10.93
2019-05-22T18:51:28.490Z,9.18
2019-05-22T18:53:59.517Z,9.35
2019-05-22T18:56:30.867Z,10.38
2019-05-22T18:58:59.183Z,41.90
2019-05-22T19:01:27.656Z,31.05
2019-05-22T19:03:59.148Z,18.20
2019-05-22T19:06:30.535Z,31.52
2019-05-22T19:08:59.124Z,14.28
2019-05-22T19:11:27.621Z,11.80
2019-05-22T19:13:55.921Z,10.55
2019-05-22T19:16:24.244Z,11.25
2019-05-22T19:18:52.554Z,10.05
2019-05-22T19:21:20.838Z,10.18
2019-05-22T19:26:38.473Z,9.55
2019-05-22T19:29:09.339Z,11.28
2019-05-22T19:31:37.671Z,12.15
2019-05-22T19:34:06.087Z,10.95
2019-05-22T19:36:34.471Z,10.88
2019-05-22T19:39:02.794Z,11.10
2019-05-22T19:41:31.315Z,9.68
2019-05-22T19:43:59.723Z,11.28
2019-05-22T19:46:28.242Z,11.10
2019-05-22T19:48:56.988Z,11.70
2019-05-22T19:51:25.802Z,8.95
2019-05-22T19:53:54.443Z,11.25
2019-05-22T19:56:23.739Z,11.03
2019-05-22T19:58:52.461Z,10.65
2019-05-22T20:01:20.883Z,10.13
2019-05-22T20:03:49.843Z,16.27
2019-05-22T20:06:18.582Z,21.87
2019-05-22T20:08:47.280Z,16.45
2019-05-22T20:11:15.520Z,11.63
2019-05-22T20:13:44.184Z,13.32
2019-05-22T20:16:12.525Z,11.20
2019-05-22T20:18:40.837Z,13.22
2019-05-22T20:21:09.129Z,13.60
2019-05-22T20:23:40.190Z,27.13
2019-05-22T20:26:08.540Z,17.37
2019-05-22T20:28:37.520Z,12.58
2019-05-22T20:31:05.860Z,13.75
2019-05-22T20:33:34.195Z,11.03
2019-05-22T20:36:03.041Z,33.88
2019-05-22T20:38:31.367Z,14.70
2019-05-22T20:40:59.801Z,14.07
2019-05-22T20:43:28.485Z,13.80
2019-05-22T20:45:56.734Z,11.57
2019-05-22T20:48:26.713Z,13.25
2019-05-22T20:50:59.117Z,12.58
2019-05-22T20:53:28.600Z,13.10
2019-05-22T20:55:56.920Z,14.63
2019-05-22T20:58:26.866Z,11.20
2019-05-22T21:00:55.290Z,18.75
2019-05-22T21:03:24.697Z,15.00
2019-05-22T21:05:54.103Z,16.97
2019-05-22T21:08:24.363Z,13.00
2019-05-22T21:10:53.010Z,14.50
2019-05-22T21:13:21.289Z,15.78
2019-05-22T21:15:51.190Z,13.60
2019-05-22T21:18:21.089Z,12.25
2019-05-22T21:20:54.880Z,11.70
2019-05-22T21:23:20.502Z,13.13
2019-05-22T21:25:48.835Z,14.58
2019-05-22T21:28:17.270Z,11.68
2019-05-22T21:30:47.089Z,13.88
2019-05-22T21:33:15.708Z,14.15
2019-05-22T21:35:44.043Z,18.12
2019-05-22T21:38:12.569Z,15.75
2019-05-22T21:40:40.973Z,15.38
2019-05-22T21:43:09.249Z,13.68
2019-05-22T21:45:40.890Z,15.10
2019-05-22T21:48:09.200Z,12.20
2019-05-22T21:50:38.077Z,12.82
2019-05-22T21:53:09.276Z,13.43
2019-05-22T21:55:37.938Z,13.15
2019-05-22T21:58:06.558Z,19.17
2019-05-22T22:00:42.113Z,21.97
2019-05-22T22:03:21.108Z,19.65
2019-05-22T22:05:50.173Z,17.00
2019-05-22T22:08:18.510Z,15.18
2019-05-22T22:10:47.404Z,15.45
2019-05-22T22:13:16.152Z,17.00
2019-05-22T22:15:46.187Z,17.75
2019-05-22T22:18:15.402Z,16.77
2019-05-22T22:20:44.325Z,16.37
2019-05-22T22:23:13.330Z,18.90
2019-05-22T22:25:42.727Z,18.57
2019-05-22T22:28:10.990Z,16.87
2019-05-22T22:30:50.037Z,17.62
2019-05-22T22:33:21.413Z,18.90
2019-05-22T22:35:49.760Z,20.23
2019-05-22T22:38:19.253Z,17.62
2019-05-22T22:40:49.051Z,20.72
2019-05-22T22:43:17.855Z,18.85
2019-05-22T22:45:47.802Z,20.90
2019-05-22T22:48:23.411Z,22.37
2019-05-22T22:50:52.952Z,21.82
2019-05-22T22:53:21.192Z,28.05
2019-05-22T22:55:52.148Z,22.45
2019-05-22T22:58:21.294Z,22.30
2019-05-22T23:00:52.219Z,20.50
2019-05-22T23:03:21.983Z,20.27
2019-05-22T23:05:50.206Z,23.02
2019-05-22T23:08:21.918Z,20.05
2019-05-22T23:10:50.947Z,21.45
2019-05-22T23:13:19.209Z,20.08
2019-05-22T23:15:48.845Z,20.35
2019-05-22T23:18:37.199Z,22.30
2019-05-22T23:21:04.771Z,18.02
2019-05-22T23:23:32.179Z,22.17
2019-05-22T23:26:00.407Z,21.65
2019-05-22T23:28:34.512Z,21.75
2019-05-22T23:31:02.277Z,19.35
2019-05-22T23:33:31.108Z,18.73
2019-05-22T23:36:01.683Z,17.07
2019-05-22T23:38:30.095Z,20.72
2019-05-22T23:40:58.358Z,19.75
2019-05-22T23:43:27.909Z,17.87
2019-05-22T23:45:56.497Z,18.73
2019-05-22T23:48:25.201Z,17.55
2019-05-22T23:50:53.442Z,17.30
2019-05-22T23:53:23.383Z,19.48
2019-05-22T23:55:51.731Z,20.08
2019-05-22T23:58:20.199Z,21.02
